Time;durP1;ratioP1;P1;durP2;ratioP2;P2;SDS_P1;SDS_P2;PMS_P1;PMS_P2;Temp;Humidity;BMP_temperature;BMP_pressure;BME280_temperature;BME280_humidity;BME280_pressure;Samples;Min_cycle;Max_cycle;Signal;HPM_P1;HPM_P2
2022/03/03 00:00:13;;;;;;;5.65;4.10;;;;;;;2.22;100.00;90525.69;1661291;84;20979;-57
2022/03/03 00:02:41;;;;;;;7.60;4.50;;;;;;;2.21;100.00;88161.52;1661448;84;21124;-57
2022/03/03 00:05:10;;;;;;;7.97;4.70;;;;;;;2.21;100.00;82262.13;1690896;84;21149;-57
2022/03/03 00:07:37;;;;;;;8.28;5.05;;;;;;;2.22;100.00;77551.25;1690734;83;21519;-57
2022/03/03 00:10:06;;;;;;;7.15;5.00;;;;;;;2.21;100.00;75028.12;1662281;84;21434;-57
2022/03/03 00:12:34;;;;;;;13.60;5.10;;;;;;;2.21;100.00;72676.15;1687909;83;21517;-61
2022/03/03 00:15:04;;;;;;;7.78;4.87;;;;;;;2.20;100.00;73682.63;1721581;83;20972;-57
2022/03/03 00:17:33;;;;;;;7.12;5.05;;;;;;;2.19;100.00;72001.91;1689362;84;21116;-57
2022/03/03 00:20:00;;;;;;;7.95;5.37;;;;;;;2.18;100.00;67973.43;1719883;83;21005;-57
2022/03/03 00:22:27;;;;;;;7.42;5.40;;;;;;;2.17;100.00;66966.18;1719549;82;21092;-57
2022/03/03 00:24:54;;;;;;;10.03;5.40;;;;;;;2.16;100.00;66294.48;1660007;84;21518;-57
2022/03/03 00:27:21;;;;;;;8.15;5.58;;;;;;;2.11;100.00;70481.14;1721635;83;20972;-58
2022/03/03 00:29:52;;;;;;;12.80;7.58;;;;;;;2.09;100.00;73500.34;1645866;85;21594;-57
2022/03/03 00:32:19;;;;;;;11.60;6.95;;;;;;;2.07;100.00;72993.95;1678361;85;21074;-58
2022/03/03 00:34:47;;;;;;;8.60;6.10;;;;;;;2.02;100.00;74666.95;1674547;85;21329;-58
2022/03/03 00:37:14;;;;;;;8.40;5.42;;;;;;;2.00;100.00;72314.68;1630815;85;21148;-58
2022/03/03 00:39:41;;;;;;;9.05;6.03;;;;;;;1.98;100.00;69794.50;1659265;85;21680;-58
2022/03/03 00:42:08;;;;;;;9.80;6.15;;;;;;;1.97;100.00;67446.41;1628184;86;21238;-58
2022/03/03 00:44:37;;;;;;;8.75;6.10;;;;;;;1.97;100.00;65770.03;1609308;86;21466;-57
2022/03/03 00:47:07;;;;;;;12.50;7.70;;;;;;;1.95;100.00;64260.83;1630953;86;21040;-57
2022/03/03 00:49:34;;;;;;;12.10;6.67;;;;;;;1.94;100.00;63255.11;1658860;85;21046;-57
2022/03/03 00:52:02;;;;;;;8.15;5.80;;;;;;;1.94;100.00;61916.12;1659213;85;21533;-57
2022/03/03 00:54:29;;;;;;;8.65;5.50;;;;;;;1.92;100.00;62415.96;1630157;85;21246;-57
2022/03/03 00:56:56;;;;;;;8.10;5.55;;;;;;;1.90;100.00;62079.05;1630018;86;21089;-57
2022/03/03 00:59:23;;;;;;;9.40;5.90;;;;;;;1.89;100.00;61301.50;1658374;85;21091;-57
2022/03/03 01:01:50;;;;;;;10.80;6.87;;;;;;;1.89;100.00;60291.66;1658742;85;21072;-57
2022/03/03 01:04:19;;;;;;;11.68;6.17;;;;;;;1.89;100.00;59412.43;1629369;85;21016;-61
2022/03/03 01:06:47;;;;;;;8.35;6.30;;;;;;;1.88;100.00;59036.50;1697163;83;21152;-62
2022/03/03 01:09:14;;;;;;;8.68;6.05;;;;;;;1.86;100.00;59253.79;1705111;83;21070;-60
2022/03/03 01:11:41;;;;;;;11.00;7.33;;;;;;;1.85;100.00;58620.63;1683152;84;20893;-60
2022/03/03 01:14:09;;;;;;;10.58;6.87;;;;;;;1.84;100.00;57392.82;1660093;86;21033;-60
2022/03/03 01:16:36;;;;;;;11.35;7.65;;;;;;;1.84;100.00;56055.05;1674769;85;21104;-61
2022/03/03 01:19:04;;;;;;;12.37;8.05;;;;;;;1.84;100.00;53550.11;1647829;85;21616;-60
2022/03/03 01:21:32;;;;;;;12.13;7.92;;;;;;;1.85;100.00;52382.95;1647663;85;21502;-60
2022/03/03 01:23:59;;;;;;;12.45;8.30;;;;;;;1.85;100.00;51882.46;1675612;84;21048;-60
2022/03/03 01:26:26;;;;;;;11.48;7.22;;;;;;;1.83;100.00;50546.80;1674743;85;21072;-61
2022/03/03 01:28:53;;;;;;;12.75;8.03;;;;;;;1.83;100.00;49713.14;1648047;85;21049;-60
2022/03/03 01:31:21;;;;;;;13.38;8.45;;;;;;;1.81;100.00;48711.27;1672016;85;21112;-61
2022/03/03 01:33:49;;;;;;;14.80;8.00;;;;;;;1.80;100.00;47543.59;1646463;84;21115;-60
2022/03/03 01:36:17;;;;;;;13.98;8.35;;;;;;;1.80;100.00;46211.11;1690788;84;21025;-62
2022/03/03 01:38:44;;;;;;;16.17;9.55;;;;;;;1.78;100.00;45044.41;1675715;83;21097;-60
2022/03/03 01:41:11;;;;;;;13.18;8.23;;;;;;;1.78;100.00;44378.20;1663908;84;21307;-61
2022/03/03 01:43:38;;;;;;;12.35;8.25;;;;;;;1.77;100.00;44044.55;1637589;86;21150;-61
2022/03/03 01:46:05;;;;;;;14.58;9.05;;;;;;;1.74;100.00;44541.39;1667334;84;21006;-57
2022/03/03 01:48:33;;;;;;;11.43;7.12;;;;;;;1.74;100.00;43043.87;1667831;86;21091;-57
2022/03/03 01:51:00;;;;;;;10.10;6.08;;;;;;;1.71;100.00;42543.29;1667812;86;21038;-56
2022/03/03 01:53:27;;;;;;;15.72;9.60;;;;;;;1.69;100.00;42042.82;1644792;86;21395;-58
2022/03/03 01:55:55;;;;;;;18.60;11.20;;;;;;;1.67;100.00;41043.71;1667751;86;21132;-58
2022/03/03 01:58:23;;;;;;;24.00;13.25;;;;;;;1.67;100.00;40046.42;1667861;84;21142;-57
2022/03/03 02:00:51;;;;;;;21.40;12.37;;;;;;;1.66;100.00;38384.23;1667799;84;21577;-57
2022/03/03 02:03:18;;;;;;;18.00;12.40;;;;;;;1.66;100.00;37885.96;1667344;86;21546;-57
2022/03/03 02:05:45;;;;;;;18.40;11.65;;;;;;;1.64;100.00;37884.21;1667609;86;21049;-59
2022/03/03 02:08:14;;;;;;;17.90;10.88;;;;;;;1.61;100.00;37716.39;1671079;84;21817;-57
2022/03/03 02:10:41;;;;;;;18.00;9.60;;;;;;;1.58;100.00;37880.36;1710580;83;21052;-57
2022/03/03 02:13:08;;;;;;;17.98;10.03;;;;;;;1.55;100.00;37712.21;1692249;84;21092;-60
2022/03/03 02:15:36;;;;;;;17.17;9.85;;;;;;;1.52;100.00;37212.40;1691550;84;21056;-61
2022/03/03 02:18:03;;;;;;;15.72;9.73;;;;;;;1.52;100.00;36382.13;1664113;84;21396;-60
2022/03/03 02:20:30;;;;;;;12.82;8.55;;;;;;;1.50;100.00;34887.47;1664105;84;21574;-61
2022/03/03 02:22:58;;;;;;;12.85;8.10;;;;;;;1.48;100.00;33725.20;1691702;84;21762;-57
2022/03/03 02:25:26;;;;;;;11.65;6.87;;;;;;;1.46;100.00;32397.66;1691381;83;21440;-58
2022/03/03 02:27:54;;;;;;;11.53;7.25;;;;;;;1.46;100.00;30906.50;1664004;83;21124;-57
2022/03/03 02:30:21;;;;;;;10.80;6.83;;;;;;;1.46;100.00;29746.67;1683206;83;21079;-57
2022/03/03 02:32:48;;;;;;;10.38;6.60;;;;;;;1.45;100.00;28752.54;1695365;83;21742;-61
2022/03/03 02:35:15;;;;;;;10.38;6.60;;;;;;;1.42;100.00;28254.79;1713015;83;21094;-62
2022/03/03 02:37:44;;;;;;;10.93;7.55;;;;;;;1.41;100.00;27757.68;1694515;83;21026;-61
2022/03/03 02:40:19;;;;;;;11.43;7.50;;;;;;;1.38;100.00;27259.62;1668052;83;21061;-61
2022/03/03 02:42:45;;;;;;;9.45;6.03;;;;;;;1.39;100.00;26598.28;1694047;83;21073;-62
2022/03/03 02:45:15;;;;;;;8.60;5.83;;;;;;;1.38;100.00;26266.89;1661360;84;21108;-59
2022/03/03 02:47:45;;;;;;;8.95;5.33;;;;;;;1.37;100.00;26762.46;1690362;84;21302;-61
2022/03/03 02:50:13;;;;;;;9.20;6.45;;;;;;;1.35;100.00;26927.13;1690695;83;21065;-61
2022/03/03 02:52:42;;;;;;;8.68;5.87;;;;;;;1.35;100.00;27258.05;1690551;83;21598;-61
2022/03/03 02:55:10;;;;;;;7.85;5.37;;;;;;;1.34;100.00;27423.00;1690876;84;21133;-61
2022/03/03 02:57:56;;;;;;;8.55;5.30;;;;;;;1.33;100.00;27091.55;1660964;84;21137;-62
2022/03/03 03:00:28;;;;;;;8.73;6.03;;;;;;;1.32;100.00;27752.91;1690369;83;21050;-61
2022/03/03 03:02:55;;;;;;;8.55;5.70;;;;;;;1.31;100.00;29076.52;1660882;84;21132;-64
2022/03/03 03:05:22;;;;;;;7.70;5.00;;;;;;;1.30;100.00;28744.89;1690407;83;21594;-61
2022/03/03 03:07:51;;;;;;;7.00;4.90;;;;;;;1.29;100.00;29075.69;1690127;83;21565;-62
2022/03/03 03:10:18;;;;;;;8.08;5.50;;;;;;;1.29;100.00;28578.82;1669633;83;21143;-62
2022/03/03 03:12:45;;;;;;;8.45;5.78;;;;;;;1.30;100.00;28248.34;1660665;84;21105;-61
2022/03/03 03:15:12;;;;;;;6.92;4.83;;;;;;;1.29;100.00;27916.81;1661001;84;21528;-61
2022/03/03 03:17:39;;;;;;;7.90;5.12;;;;;;;1.28;100.00;27750.80;1690067;83;21089;-61
2022/03/03 03:20:08;;;;;;;7.58;5.42;;;;;;;1.26;100.00;27750.00;1638842;84;21053;-61
2022/03/03 03:22:35;;;;;;;7.78;5.50;;;;;;;1.27;100.00;27419.34;1690343;83;21098;-61
2022/03/03 03:25:21;;;;;;;7.25;5.12;;;;;;;1.26;100.00;27419.07;1690403;83;21424;-62
2022/03/03 03:27:48;;;;;;;7.60;5.03;;;;;;;1.24;100.00;27583.22;1690653;83;21109;-62
2022/03/03 03:30:15;;;;;;;8.35;5.30;;;;;;;1.23;100.00;27252.06;1690032;83;21471;-62
2022/03/03 03:32:42;;;;;;;7.62;4.45;;;;;;;1.23;100.00;26920.95;1692063;84;21053;-61
2022/03/03 03:35:10;;;;;;;7.78;5.25;;;;;;;1.22;100.00;26589.86;1669837;85;21000;-61
2022/03/03 03:37:37;;;;;;;7.80;5.15;;;;;;;1.23;100.00;25763.20;1669316;85;21076;-62
2022/03/03 03:40:06;;;;;;;9.38;5.78;;;;;;;1.23;100.00;25928.57;1666801;84;21395;-61
2022/03/03 03:42:34;;;;;;;8.55;5.53;;;;;;;1.23;100.00;26094.19;1666773;84;21627;-62
2022/03/03 03:45:02;;;;;;;9.83;5.80;;;;;;;1.22;100.00;26258.82;1666657;84;21100;-60
2022/03/03 03:47:29;;;;;;;9.58;5.90;;;;;;;1.22;100.00;26589.61;1692093;84;21690;-62
2022/03/03 03:49:57;;;;;;;7.45;5.08;;;;;;;1.22;100.00;26589.61;1689629;84;21574;-61
2022/03/03 03:52:24;;;;;;;9.53;5.62;;;;;;;1.22;100.00;26589.86;1661952;83;21024;-62
2022/03/03 03:54:51;;;;;;;9.65;5.53;;;;;;;1.22;100.00;26755.02;1662345;84;21112;-61
2022/03/03 03:57:18;;;;;;;8.65;4.47;;;;;;;1.21;100.00;26919.91;1692124;84;21127;-62
2022/03/03 03:59:45;;;;;;;8.88;5.37;;;;;;;1.21;100.00;27251.02;1669547;85;21106;-62
2022/03/03 04:02:12;;;;;;;10.63;5.58;;;;;;;1.21;100.00;27416.19;1644223;84;21451;-61
2022/03/03 04:04:39;;;;;;;12.25;6.00;;;;;;;1.20;100.00;27415.66;1666062;84;21120;-62
2022/03/03 04:07:06;;;;;;;9.45;5.55;;;;;;;1.20;100.00;26753.98;1667764;84;21498;-62
2022/03/03 04:09:33;;;;;;;9.60;5.40;;;;;;;1.19;100.00;26753.47;1660010;85;21108;-63
2022/03/03 04:12:02;;;;;;;9.48;6.45;;;;;;;1.20;100.00;26919.39;1693392;82;21194;-62
2022/03/03 04:14:30;;;;;;;12.13;6.35;;;;;;;1.18;100.00;26918.62;1687278;83;20925;-61
2022/03/03 04:16:57;;;;;;;9.00;5.47;;;;;;;1.19;100.00;26422.68;1656713;84;21080;-63
2022/03/03 04:19:25;;;;;;;9.55;5.90;;;;;;;1.20;100.00;25761.71;1686208;83;21072;-63
2022/03/03 04:21:52;;;;;;;9.33;5.80;;;;;;;1.22;100.00;25266.66;1657204;84;21048;-62
2022/03/03 04:24:19;;;;;;;9.78;5.45;;;;;;;1.22;100.00;25597.35;1657125;85;21137;-62
2022/03/03 04:26:46;;;;;;;9.60;5.83;;;;;;;1.21;100.00;26423.70;1657367;83;21120;-62
2022/03/03 04:29:13;;;;;;;7.55;5.30;;;;;;;1.21;100.00;25927.56;1687775;83;21067;-62
2022/03/03 04:31:40;;;;;;;8.33;5.53;;;;;;;1.21;100.00;26258.57;1668973;84;21111;-62
2022/03/03 04:34:08;;;;;;;9.03;5.50;;;;;;;1.21;100.00;27747.08;1672499;85;21343;-62
2022/03/03 04:36:35;;;;;;;7.67;5.42;;;;;;;1.18;100.00;27745.77;1672099;85;21139;-62
2022/03/03 04:41:32;;;;;;;7.62;5.37;;;;;;;1.16;100.00;28075.34;1691664;84;21562;-63
2022/03/03 04:43:59;;;;;;;8.28;5.33;;;;;;;1.13;100.00;28074.01;1692362;84;21953;-61
2022/03/03 04:46:26;;;;;;;8.25;5.65;;;;;;;1.11;100.00;27576.64;1668398;84;21052;-61
2022/03/03 04:48:59;;;;;;;7.22;4.78;;;;;;;1.10;100.00;27245.28;1692829;84;21202;-61
2022/03/03 04:51:22;;;;;;;8.35;5.55;;;;;;;1.10;100.00;25922.32;1668023;84;21701;-62
2022/03/03 04:53:49;;;;;;;8.95;5.30;;;;;;;1.10;100.00;24930.70;1692840;84;21605;-62
2022/03/03 04:56:16;;;;;;;7.47;5.40;;;;;;;1.11;100.00;24269.84;1646333;84;20989;-62
2022/03/03 04:58:44;;;;;;;8.48;5.40;;;;;;;1.07;100.00;24433.45;1692911;84;21040;-61
2022/03/03 05:01:12;;;;;;;8.28;5.17;;;;;;;1.07;100.00;24102.95;1693065;84;21620;-60
2022/03/03 05:03:39;;;;;;;9.75;5.70;;;;;;;1.07;100.00;23276.62;1692361;84;22266;-62
2022/03/03 05:06:06;;;;;;;9.53;6.10;;;;;;;1.07;100.00;22946.47;1645940;84;21057;-61
2022/03/03 05:08:33;;;;;;;7.70;5.37;;;;;;;1.08;100.00;22781.74;1668484;84;21702;-62
2022/03/03 05:11:02;;;;;;;7.53;4.90;;;;;;;1.07;100.00;22450.96;1708468;81;21486;-62
2022/03/03 05:13:31;;;;;;;10.25;6.20;;;;;;;1.09;100.00;21956.39;1684724;85;21192;-57
2022/03/03 05:15:58;;;;;;;8.68;5.78;;;;;;;1.09;100.00;21791.26;1657439;85;21529;-57
2022/03/03 05:18:27;;;;;;;9.15;5.72;;;;;;;1.10;100.00;20966.13;1684958;85;21518;-58
2022/03/03 05:20:54;;;;;;;8.90;5.42;;;;;;;1.11;100.00;20471.29;1657545;85;21810;-58
2022/03/03 05:23:24;;;;;;;9.70;5.90;;;;;;;1.12;100.00;19811.28;1657138;85;21032;-58
2022/03/03 05:25:52;;;;;;;9.53;6.05;;;;;;;1.13;100.00;19481.80;1685056;85;21138;-57
2022/03/03 05:28:19;;;;;;;8.00;5.90;;;;;;;1.13;100.00;19151.77;1684802;85;21056;-61
2022/03/03 05:30:46;;;;;;;6.92;5.00;;;;;;;1.14;100.00;19151.96;1660209;85;21594;-61
2022/03/03 05:33:14;;;;;;;7.35;4.90;;;;;;;1.14;100.00;19152.15;1638578;85;22126;-58
2022/03/03 05:35:41;;;;;;;7.28;5.20;;;;;;;1.16;100.00;18822.72;1686280;85;21578;-61
2022/03/03 05:38:09;;;;;;;7.75;5.37;;;;;;;1.18;100.00;18658.29;1662097;84;21965;-62
2022/03/03 05:40:38;;;;;;;8.00;5.33;;;;;;;1.16;100.00;19152.54;1688811;83;21583;-61
2022/03/03 05:43:05;;;;;;;7.17;4.75;;;;;;;1.12;100.00;19646.44;1689852;84;21090;-57
2022/03/03 05:45:35;;;;;;;6.22;4.08;;;;;;;1.08;100.00;20470.07;1690323;84;21535;-60
2022/03/03 05:48:03;;;;;;;6.75;4.87;;;;;;;1.06;100.00;20964.46;1661353;83;21054;-60
2022/03/03 05:50:30;;;;;;;7.72;5.62;;;;;;;1.05;100.00;20963.84;1690863;83;21768;-61
2022/03/03 05:52:59;;;;;;;7.67;5.17;;;;;;;1.06;100.00;20304.20;1690548;84;21096;-58
2022/03/03 05:55:27;;;;;;;7.40;5.53;;;;;;;1.07;100.00;19974.52;1690666;84;21038;-58
2022/03/03 05:57:54;;;;;;;8.75;5.87;;;;;;;1.08;100.00;19644.87;1660897;84;21057;-61
2022/03/03 06:00:21;;;;;;;8.33;5.80;;;;;;;1.13;100.00;18986.57;1660372;83;21137;-58
2022/03/03 06:02:51;;;;;;;8.38;5.22;;;;;;;1.19;100.00;18163.70;1690327;83;21747;-58
2022/03/03 06:05:21;;;;;;;9.80;6.42;;;;;;;1.22;100.00;17340.18;1690094;84;21640;-62
2022/03/03 06:07:52;;;;;;;7.40;5.35;;;;;;;1.27;100.00;17012.06;1638466;84;21074;-61
2022/03/03 06:10:23;;;;;;;8.95;5.95;;;;;;;1.31;100.00;16683.41;1705462;83;21473;-61
2022/03/03 06:13:04;;;;;;;10.30;6.00;;;;;;;1.37;100.00;16025.74;1656252;84;21101;-61
2022/03/03 06:15:31;;;;;;;10.28;5.72;;;;;;;1.42;100.00;15697.56;1632494;86;21141;-60
2022/03/03 06:17:58;;;;;;;9.38;6.25;;;;;;;1.49;100.00;16359.33;1633901;86;21506;-60
2022/03/03 06:20:27;;;;;;;8.80;5.53;;;;;;;1.53;100.00;16690.65;1661970;84;21154;-60
2022/03/03 06:22:54;;;;;;;10.08;5.90;;;;;;;1.56;100.00;16361.70;1662366;86;20989;-61
2022/03/03 06:25:21;;;;;;;10.03;6.30;;;;;;;1.61;100.00;16198.40;1662179;84;21121;-60
2022/03/03 06:27:49;;;;;;;9.75;6.08;;;;;;;1.66;100.00;16530.11;1633839;86;21471;-61
2022/03/03 06:30:16;;;;;;;12.90;6.75;;;;;;;1.69;100.00;17026.26;1695891;83;20949;-60
2022/03/03 06:32:43;;;;;;;10.10;6.25;;;;;;;1.71;100.00;17852.16;1689271;83;21106;-60
2022/03/03 06:35:10;;;;;;;10.53;6.33;;;;;;;1.71;100.00;19173.40;1719981;83;20936;-60
2022/03/03 06:37:37;;;;;;;8.98;5.60;;;;;;;1.73;100.00;20495.38;1713331;83;21063;-61
2022/03/03 06:40:06;;;;;;;10.90;6.45;;;;;;;1.74;100.00;20661.23;1720142;83;21525;-61
2022/03/03 06:42:33;;;;;;;9.08;5.85;;;;;;;1.78;100.00;21323.76;1720020;83;21012;-60
2022/03/03 06:45:00;;;;;;;10.25;6.55;;;;;;;1.78;100.00;22977.05;1673863;84;21045;-61
2022/03/03 06:47:27;;;;;;;11.63;6.83;;;;;;;1.78;100.00;25624.02;1701469;83;21084;-60
2022/03/03 06:49:54;;;;;;;12.00;7.42;;;;;;;1.80;100.00;26287.10;1673871;84;20989;-60
2022/03/03 06:52:25;;;;;;;8.90;6.17;;;;;;;1.82;100.00;26619.21;1701976;84;21593;-60
2022/03/03 06:54:52;;;;;;;14.90;7.75;;;;;;;1.86;100.00;25959.29;1701849;84;21037;-61
2022/03/03 06:57:22;;;;;;;13.43;7.40;;;;;;;1.93;100.00;25134.59;1701814;84;21135;-61
2022/03/03 06:59:52;;;;;;;12.13;7.33;;;;;;;1.98;100.00;24144.23;1701672;84;21112;-60
2022/03/03 07:02:20;;;;;;;12.82;8.00;;;;;;;2.04;100.00;25139.70;1674212;84;21478;-61
2022/03/03 07:04:51;;;;;;;12.88;8.48;;;;;;;2.09;100.00;25307.94;1696200;83;22395;-60
2022/03/03 07:07:18;;;;;;;12.23;8.28;;;;;;;2.16;100.00;24648.84;1719615;83;21000;-61
2022/03/03 07:09:45;;;;;;;13.28;8.55;;;;;;;2.21;100.00;24485.66;1708171;83;21530;-61
2022/03/03 07:12:13;;;;;;;12.33;8.33;;;;;;;2.24;100.00;26805.85;1666196;84;21022;-61
2022/03/03 07:14:40;;;;;;;13.00;7.85;;;;;;;2.28;100.00;30455.18;1656268;85;21063;-60
2022/03/03 07:17:19;;;;;;;11.78;6.95;;;;;;;2.32;100.00;31120.50;1687978;83;21147;-58
2022/03/03 07:20:07;;;;;;;12.90;7.50;;;;;;;2.34;100.00;32283.35;1658744;84;21109;-57
2022/03/03 07:22:38;;;;;;;11.68;7.00;;;;;;;2.33;100.00;37930.75;1661048;84;20990;-62
2022/03/03 07:25:11;;;;;;;14.30;7.85;;;;;;;2.28;100.00;41753.79;1690539;83;21542;-60
2022/03/03 07:27:44;;;;;;;14.93;7.70;;;;;;;2.29;100.00;43585.50;1691111;84;21045;-61
2022/03/03 07:30:15;;;;;;;14.30;8.43;;;;;;;2.29;100.00;45251.59;1690225;83;21119;-60
2022/03/03 07:32:53;;;;;;;15.30;8.93;;;;;;;2.26;100.00;48416.08;1634221;86;21060;-61
2022/03/03 07:35:21;;;;;;;17.27;8.80;;;;;;;2.26;100.00;47915.41;1688669;83;21120;-58
2022/03/03 07:38:05;;;;;;;15.35;9.65;;;;;;;2.27;100.00;46083.08;1662416;84;21059;-61
2022/03/03 07:40:32;;;;;;;15.67;9.07;;;;;;;2.28;100.00;44084.71;1640774;83;21521;-61
2022/03/03 07:43:00;;;;;;;16.85;10.32;;;;;;;2.29;100.00;43585.88;1692628;84;21875;-60
2022/03/03 07:45:27;;;;;;;14.68;8.73;;;;;;;2.27;100.00;43251.26;1637201;86;21555;-61
2022/03/03 07:47:55;;;;;;;13.95;8.30;;;;;;;2.29;100.00;42919.45;1634870;86;21053;-61
2022/03/03 07:50:23;;;;;;;14.65;8.88;;;;;;;2.31;100.00;41921.77;1632857;86;21075;-61
2022/03/03 07:52:50;;;;;;;16.30;9.40;;;;;;;2.34;100.00;40093.54;1633178;86;21072;-57
2022/03/03 07:55:17;;;;;;;14.90;8.88;;;;;;;2.35;100.00;41425.50;1657686;86;21162;-57
2022/03/03 07:58:00;;;;;;;15.68;8.93;;;;;;;2.35;100.00;41758.39;1632475;86;21511;-58
2022/03/03 08:00:29;;;;;;;15.83;8.90;;;;;;;2.40;100.00;39266.13;1657014;86;21069;-58
2022/03/03 08:03:01;;;;;;;13.98;8.73;;;;;;;2.41;100.00;40764.30;1657879;86;21530;-58
2022/03/03 08:05:29;;;;;;;15.68;9.43;;;;;;;2.42;100.00;41764.11;1657710;86;21139;-58
2022/03/03 08:07:57;;;;;;;16.52;9.15;;;;;;;2.46;100.00;43432.04;1632915;86;21701;-59
2022/03/03 08:10:26;;;;;;;16.37;9.75;;;;;;;2.48;100.00;44266.59;1662373;84;21201;-61
2022/03/03 08:13:03;;;;;;;15.75;9.38;;;;;;;2.52;100.00;46103.17;1660592;84;21529;-57
2022/03/03 08:15:41;;;;;;;17.90;9.75;;;;;;;2.56;100.00;45939.81;1663620;84;21439;-58
2022/03/03 08:18:10;;;;;;;16.75;10.05;;;;;;;2.61;100.00;45109.61;1674881;85;21121;-58
2022/03/03 08:20:38;;;;;;;18.27;10.58;;;;;;;2.67;100.00;44114.45;1676221;85;21899;-58
2022/03/03 08:23:06;;;;;;;17.20;9.53;;;;;;;2.72;100.00;43618.49;1676135;85;21017;-57
2022/03/03 08:25:35;;;;;;;16.93;9.65;;;;;;;2.77;100.00;40956.62;1651579;85;21133;-58
2022/03/03 08:28:03;;;;;;;19.00;10.58;;;;;;;2.82;100.00;40128.16;1647239;85;20961;-58
2022/03/03 08:30:30;;;;;;;14.15;9.58;;;;;;;2.85;100.00;41462.30;1669200;84;22264;-61
2022/03/03 08:33:13;;;;;;;18.15;10.82;;;;;;;2.88;100.00;42630.46;1665567;86;21641;-58
2022/03/03 08:35:41;;;;;;;17.95;10.85;;;;;;;2.93;100.00;40968.25;1665633;84;21071;-62
2022/03/03 08:38:31;;;;;;;19.60;11.48;;;;;;;2.99;100.00;38974.34;1665738;86;21107;-61
2022/03/03 08:40:58;;;;;;;20.68;10.40;;;;;;;3.03;100.00;40476.02;1640293;86;21104;-62
2022/03/03 08:43:26;;;;;;;17.12;10.53;;;;;;;3.08;100.00;41812.68;1665329;86;21627;-62
2022/03/03 08:45:53;;;;;;;19.90;11.88;;;;;;;3.11;100.00;44983.00;1655128;84;21843;-61
2022/03/03 08:48:20;;;;;;;20.55;11.55;;;;;;;3.15;100.00;44151.84;1660258;84;21489;-58
2022/03/03 08:50:48;;;;;;;23.65;11.60;;;;;;;3.22;100.00;43990.27;1616341;84;21126;-58
2022/03/03 08:53:15;;;;;;;18.98;11.48;;;;;;;3.25;100.00;45327.77;1659841;83;21427;-62
2022/03/03 08:55:42;;;;;;;17.17;10.72;;;;;;;3.28;100.00;47666.94;1662400;84;21131;-61
2022/03/03 08:58:10;;;;;;;18.73;11.73;;;;;;;3.29;100.00;49672.36;1690799;84;21496;-60
2022/03/03 09:00:38;;;;;;;21.33;11.50;;;;;;;3.28;100.00;58806.52;1690638;83;21048;-61
2022/03/03 09:03:05;;;;;;;16.10;10.55;;;;;;;3.29;100.00;60564.67;1691081;84;21525;-60
2022/03/03 09:05:34;;;;;;;13.75;8.63;;;;;;;3.36;100.00;58441.33;1690232;84;21542;-62
2022/03/03 09:08:01;;;;;;;11.73;6.92;;;;;;;3.39;100.00;62237.99;1686359;84;21127;-61
2022/03/03 09:10:29;;;;;;;11.73;7.12;;;;;;;3.42;100.00;68118.25;1657857;83;21736;-58
2022/03/03 09:12:56;;;;;;;12.70;7.50;;;;;;;3.50;100.00;73508.94;1713382;83;21097;-61
2022/03/03 09:15:24;;;;;;;11.60;6.95;;;;;;;3.59;100.00;76046.82;1683240;83;21044;-58
2022/03/03 09:17:51;;;;;;;9.78;6.35;;;;;;;3.79;100.00;101275.22;1671619;85;21005;-58
2022/03/03 09:20:18;;;;;;;12.18;7.10;;;;;;;3.79;100.00;101275.22;1665020;85;21064;-58
2022/03/03 09:22:46;;;;;;;10.28;6.42;;;;;;;3.93;100.00;106226.86;1684146;83;21120;-58
2022/03/03 09:25:14;;;;;;;11.03;6.22;;;;;;;4.05;100.00;128256.95;1685116;83;21067;-58
2022/03/03 09:27:42;;;;;;;10.28;6.22;;;;;;;4.14;100.00;148703.80;1685067;85;21069;-58
2022/03/03 09:30:11;;;;;;;11.73;5.65;;;;;;;4.19;100.00;148716.70;1682320;83;20946;-59
2022/03/03 09:32:38;;;;;;;7.40;4.97;;;;;;;4.20;100.00;148717.97;1679621;85;21084;-58
2022/03/03 09:35:07;;;;;;;9.50;5.92;;;;;;;4.27;100.00;148736.08;1650571;85;21807;-57
2022/03/03 09:37:34;;;;;;;9.90;6.00;;;;;;;4.27;100.00;148736.08;1647655;85;21080;-57
2022/03/03 09:40:00;;;;;;;11.10;6.33;;;;;;;4.25;100.00;148732.19;1679680;85;21060;-58
2022/03/03 09:42:34;;;;;;;9.78;6.25;;;;;;;4.23;100.00;148727.03;1679259;85;21045;-58
2022/03/03 09:45:01;;;;;;;12.05;6.12;;;;;;;4.25;100.00;148730.92;1680925;85;21112;-57
2022/03/03 09:47:28;;;;;;;7.95;5.22;;;;;;;4.27;100.00;148736.08;1687469;84;21582;-58
2022/03/03 09:49:55;;;;;;;8.50;4.80;;;;;;;4.25;100.00;148732.19;1687468;85;21565;-58
2022/03/03 09:52:22;;;;;;;6.15;4.55;;;;;;;4.22;100.00;148723.17;1659424;85;21093;-57
2022/03/03 09:54:51;;;;;;;8.10;5.00;;;;;;;4.23;100.00;148727.03;1687807;85;21084;-58
2022/03/03 09:57:28;;;;;;;14.03;5.60;;;;;;;4.23;100.00;148727.03;1688090;84;21129;-59
2022/03/03 09:59:56;;;;;;;16.42;6.08;;;;;;;4.26;100.00;148734.77;1686347;84;21125;-57
2022/03/03 10:02:23;;;;;;;8.45;5.42;;;;;;;4.32;100.00;148747.72;1660142;85;21112;-58
2022/03/03 10:04:56;;;;;;;11.57;5.58;;;;;;;4.43;100.00;148776.11;1687648;85;21068;-57
2022/03/03 10:07:24;;;;;;;9.53;5.30;;;;;;;4.43;100.00;148776.11;1687604;84;21576;-58
2022/03/03 10:10:02;;;;;;;8.35;5.40;;;;;;;4.47;100.00;148785.17;1649161;83;21064;-58
2022/03/03 10:12:30;;;;;;;7.78;5.10;;;;;;;4.45;100.00;148781.27;1693323;83;21437;-57
2022/03/03 10:14:58;;;;;;;9.50;5.78;;;;;;;4.49;100.00;148791.59;1664560;84;21395;-58
2022/03/03 10:17:37;;;;;;;7.95;4.50;;;;;;;4.54;100.00;148804.55;1666247;86;20972;-58
2022/03/03 10:20:07;;;;;;;7.72;4.78;;;;;;;4.59;100.00;148817.45;1680483;84;21071;-57
2022/03/03 10:22:47;;;;;;;7.83;4.70;;;;;;;4.67;100.00;148835.53;1690269;84;21049;-62
2022/03/03 10:25:15;;;;;;;10.03;5.35;;;;;;;4.72;100.00;148848.44;1664588;84;21122;-61
2022/03/03 10:27:43;;;;;;;9.05;6.15;;;;;;;4.77;100.00;148861.39;1665914;86;21115;-62
2022/03/03 10:30:11;;;;;;;9.38;5.47;;;;;;;4.87;100.00;148885.94;1653000;85;21063;-60
2022/03/03 10:32:39;;;;;;;7.87;5.47;;;;;;;4.86;99.80;148884.63;1676541;85;21115;-62
2022/03/03 10:35:14;;;;;;;11.33;6.53;;;;;;;4.86;99.80;148884.63;1676847;85;21119;-59
2022/03/03 10:37:45;;;;;;;8.65;5.70;;;;;;;4.91;100.00;148896.27;1676679;85;21147;-59
2022/03/03 10:40:15;;;;;;;7.25;4.97;;;;;;;5.03;98.25;148925.98;1676834;85;21035;-59
2022/03/03 10:42:44;;;;;;;10.08;5.72;;;;;;;5.03;98.25;148925.98;1676806;85;21130;-62
2022/03/03 10:45:17;;;;;;;8.75;5.30;;;;;;;5.00;98.76;148918.23;1676636;85;21072;-62
2022/03/03 10:47:59;;;;;;;7.75;4.72;;;;;;;5.03;100.00;148925.98;1680620;84;21500;-61
2022/03/03 10:50:26;;;;;;;8.18;5.35;;;;;;;5.07;100.00;148936.31;1650021;86;21160;-62
2022/03/03 10:52:53;;;;;;;7.03;4.70;;;;;;;5.07;100.00;148936.31;1639512;86;21153;-61
2022/03/03 10:55:21;;;;;;;7.10;4.78;;;;;;;5.05;97.60;148931.16;1638653;86;21045;-57
2022/03/03 10:57:56;;;;;;;7.78;4.87;;;;;;;4.99;98.57;148915.66;1667355;84;21091;-62
2022/03/03 11:00:25;;;;;;;7.30;4.62;;;;;;;4.92;96.93;148897.53;1662546;84;21058;-63
2022/03/03 11:02:58;;;;;;;7.20;4.53;;;;;;;4.85;98.12;148882.05;1662598;86;21126;-63
2022/03/03 11:05:27;;;;;;;6.90;4.20;;;;;;;4.79;97.61;148866.56;1662188;85;21036;-63
2022/03/03 11:07:56;;;;;;;6.58;4.53;;;;;;;4.69;97.18;148842.00;1641039;86;21083;-63
2022/03/03 11:10:25;;;;;;;10.82;4.78;;;;;;;4.64;97.20;148829.09;1676832;84;21129;-58
2022/03/03 11:12:52;;;;;;;7.92;5.28;;;;;;;4.63;98.65;148825.19;1683351;83;21071;-58
2022/03/03 11:15:22;;;;;;;11.75;5.03;;;;;;;4.63;97.88;148826.47;1680760;83;21027;-59
2022/03/03 11:17:51;;;;;;;8.03;4.65;;;;;;;4.61;97.66;148821.30;1658937;83;21051;-63
2022/03/03 11:20:18;;;;;;;7.33;4.70;;;;;;;4.59;97.26;148817.45;1677389;83;20973;-63
2022/03/03 11:22:46;;;;;;;6.42;4.40;;;;;;;4.59;98.80;148817.45;1658700;84;21063;-58
2022/03/03 11:25:17;;;;;;;10.72;4.85;;;;;;;4.59;96.29;148817.45;1668626;84;21065;-59
2022/03/03 11:27:49;;;;;;;6.03;4.17;;;;;;;4.54;95.77;148804.55;1683033;84;22874;-61
2022/03/03 11:30:28;;;;;;;7.97;5.03;;;;;;;4.51;94.44;148796.75;1659224;84;21037;-62
2022/03/03 11:33:24;;;;;;;8.40;5.33;;;;;;;4.50;96.67;148794.17;1689205;84;21506;-59
2022/03/03 11:35:59;;;;;;;8.85;4.97;;;;;;;4.58;97.98;148813.56;1658647;84;21636;-63